Time;durP1;ratioP1;P1;durP2;ratioP2;P2;SDS_P1;SDS_P2;PMS_P1;PMS_P2;Temp;Humidity;BMP_temperature;BMP_pressure;BME280_temperature;BME280_humidity;BME280_pressure;Samples;Min_cycle;Max_cycle;Signal;HPM_P1;HPM_P2
2021/12/27 00:00:23;;;;;;;47.60;32.95;;;;;;;3.19;99.47;100108.78;5054767;28;20452;-77
2021/12/27 00:02:55;;;;;;;43.90;31.17;;;;;;;3.21;99.45;100106.13;5072112;28;20496;-77
2021/12/27 00:05:20;;;;;;;46.95;31.48;;;;;;;3.21;99.82;100106.13;5072639;28;20029;-79
2021/12/27 00:07:51;;;;;;;44.78;32.08;;;;;;;3.17;99.70;100105.38;5054077;28;20031;-80
2021/12/27 00:10:17;;;;;;;;;;;;;;;3.29;99.73;100111.84;5054781;28;20035;-78
2021/12/27 00:12:43;;;;;;;42.03;30.33;;;;;;;3.27;99.29;100108.47;5072252;28;19955;-79
2021/12/27 00:15:09;;;;;;;45.13;31.55;;;;;;;3.28;99.40;100110.16;5071920;28;20070;-78
2021/12/27 00:17:34;;;;;;;41.50;29.77;;;;;;;3.18;99.36;100096.59;5054433;28;20187;-78
2021/12/27 00:20:02;;;;;;;41.03;29.35;;;;;;;3.11;99.27;100082.00;5053895;28;20080;-77
2021/12/27 00:22:28;;;;;;;41.25;30.15;;;;;;;3.17;99.05;100078.25;5072147;28;20075;-77
2021/12/27 00:24:56;;;;;;;40.25;29.20;;;;;;;3.13;100.00;100072.28;5054004;28;20032;-77
2021/12/27 00:27:22;;;;;;;43.28;30.15;;;;;;;3.32;99.52;100102.97;5038025;28;20028;-77
2021/12/27 00:29:47;;;;;;;41.47;31.35;;;;;;;3.32;98.98;100097.72;5053776;28;20099;-77
2021/12/27 00:32:13;;;;;;;39.00;30.17;;;;;;;3.34;99.38;100093.25;5071477;28;20032;-79
2021/12/27 00:34:40;;;;;;;42.60;30.80;;;;;;;3.34;99.13;100096.75;5071490;28;20528;-78
2021/12/27 00:37:09;;;;;;;45.28;32.30;;;;;;;3.34;99.26;100093.25;5072073;28;20028;-77
2021/12/27 00:39:34;;;;;;;40.95;30.58;;;;;;;3.16;99.58;100061.63;5092340;28;20062;-79
2021/12/27 00:42:01;;;;;;;43.38;30.85;;;;;;;3.18;99.58;100054.56;5059403;28;20406;-79
2021/12/27 00:44:29;;;;;;;41.00;30.13;;;;;;;3.26;99.60;100063.84;5070878;28;20451;-79
2021/12/27 00:46:55;;;;;;;42.63;30.63;;;;;;;3.38;99.74;100072.03;5071785;28;20028;-79
2021/12/27 00:49:21;;;;;;;45.03;31.48;;;;;;;3.38;99.18;100072.03;5071562;28;20451;-77
2021/12/27 00:51:47;;;;;;;43.88;30.80;;;;;;;3.30;99.43;100047.88;5071711;28;20381;-77
2021/12/27 00:54:13;;;;;;;45.22;30.33;;;;;;;3.31;99.48;100046.94;5053163;28;20048;-78
2021/12/27 00:56:38;;;;;;;42.42;29.77;;;;;;;3.32;99.93;100046.00;5053100;28;20036;-77
2021/12/27 00:59:06;;;;;;;43.05;30.20;;;;;;;3.38;99.63;100064.16;5071554;28;20132;-79
2021/12/27 01:01:32;;;;;;;42.63;30.65;;;;;;;3.38;100.00;100052.78;5053561;28;20491;-78
2021/12/27 01:03:59;;;;;;;42.45;30.40;;;;;;;3.23;99.94;100027.19;5052992;28;20202;-77
2021/12/27 01:06:24;;;;;;;41.03;31.25;;;;;;;3.41;99.34;100050.00;5070765;28;20048;-79
2021/12/27 01:08:50;;;;;;;41.13;30.40;;;;;;;3.32;99.80;100040.75;5060104;28;20442;-77
2021/12/27 01:13:47;;;;;;;39.92;29.92;;;;;;;3.42;100.00;100047.31;5071319;28;20036;-77
2021/12/27 01:16:15;;;;;;;43.20;31.45;;;;;;;3.43;100.00;100048.16;5036591;28;20029;-79
2021/12/27 01:18:47;;;;;;;41.65;30.58;;;;;;;3.39;99.59;100041.34;5070712;28;20529;-78
2021/12/27 01:21:15;;;;;;;41.97;30.48;;;;;;;3.33;100.00;100028.50;5071261;28;20066;-77
2021/12/27 01:23:41;;;;;;;43.40;30.30;;;;;;;3.48;100.00;100046.19;5053189;28;20082;-77
2021/12/27 01:26:06;;;;;;;48.42;32.63;;;;;;;3.43;100.00;100035.00;5052642;28;20127;-78
2021/12/27 01:28:32;;;;;;;45.30;33.15;;;;;;;3.43;100.00;100037.66;5053295;28;20107;-77
2021/12/27 01:30:58;;;;;;;45.75;30.90;;;;;;;3.49;100.00;100042.63;5070532;28;20024;-77
2021/12/27 01:33:26;;;;;;;46.75;33.55;;;;;;;3.52;100.00;100050.34;5053108;28;20324;-77
2021/12/27 01:35:54;;;;;;;46.15;31.70;;;;;;;3.42;100.00;100025.44;5070577;28;20089;-77
2021/12/27 01:38:20;;;;;;;41.67;32.03;;;;;;;3.52;100.00;100039.84;5053285;28;20028;-78
2021/12/27 01:40:48;;;;;;;43.72;31.58;;;;;;;3.56;100.00;100046.69;5069660;28;20033;-77
2021/12/27 01:43:34;;;;;;;42.15;30.52;;;;;;;3.57;100.00;100043.13;5071670;28;20467;-77
2021/12/27 01:46:04;;;;;;;43.03;30.30;;;;;;;3.55;100.00;100037.06;5088800;28;20039;-77
2021/12/27 01:48:35;;;;;;;44.50;31.95;;;;;;;3.38;100.00;99998.47;5091079;28;20467;-78
2021/12/27 01:51:05;;;;;;;43.35;30.88;;;;;;;3.57;99.95;100027.34;5089667;28;20439;-77
2021/12/27 01:53:33;;;;;;;44.42;30.35;;;;;;;3.60;99.70;100036.84;5089277;28;20024;-78
2021/12/27 01:59:20;;;;;;;47.17;30.67;;;;;;;3.64;99.49;100025.25;5089001;28;20379;-77
2021/12/27 02:01:46;;;;;;;42.55;29.85;;;;;;;3.52;100.00;100003.03;5089376;28;20040;-77
2021/12/27 02:04:11;;;;;;;47.28;31.52;;;;;;;3.67;99.88;100032.16;5090338;28;20097;-79
2021/12/27 02:06:37;;;;;;;45.67;31.17;;;;;;;3.54;100.00;100009.09;5089953;28;20039;-77
2021/12/27 02:09:04;;;;;;;43.63;30.30;;;;;;;3.61;99.91;100022.78;5091469;28;20071;-79
2021/12/27 02:11:34;;;;;;;44.10;32.38;;;;;;;3.57;100.00;100008.94;5091250;28;20051;-77
2021/12/27 02:14:08;;;;;;;44.50;30.73;;;;;;;3.57;100.00;100005.47;5091217;28;20071;-78
2021/12/27 02:16:36;;;;;;;46.92;31.08;;;;;;;3.68;100.00;100024.22;5091229;28;20383;-77
2021/12/27 02:19:04;;;;;;;46.65;32.20;;;;;;;3.70;100.00;100024.13;5090007;28;20065;-77
2021/12/27 02:21:31;;;;;;;39.80;29.60;;;;;;;3.56;100.00;99998.47;5094826;28;20077;-77
2021/12/27 02:24:03;;;;;;;39.95;30.15;;;;;;;3.60;100.00;100003.53;5095127;28;20028;-77
2021/12/27 02:26:29;;;;;;;43.78;30.33;;;;;;;3.70;100.00;100030.22;5077888;28;20126;-77
2021/12/27 02:28:55;;;;;;;42.42;29.85;;;;;;;3.72;100.00;100025.75;5095246;28;20077;-77
2021/12/27 02:31:21;;;;;;;45.95;32.17;;;;;;;3.72;100.00;100024.91;5095324;28;20087;-77
2021/12/27 02:33:46;;;;;;;44.88;31.10;;;;;;;3.73;100.00;100016.94;5094165;28;20454;-77
2021/12/27 02:36:13;;;;;;;42.80;29.67;;;;;;;3.63;100.00;100008.63;5094614;28;20080;-78
2021/12/27 02:38:42;;;;;;;46.45;31.88;;;;;;;3.59;100.00;100007.09;5092096;28;20060;-77
2021/12/27 02:41:10;;;;;;;43.22;29.77;;;;;;;3.64;100.00;100010.34;5056762;28;20044;-77
2021/12/27 02:43:42;;;;;;;47.08;32.20;;;;;;;3.74;100.00;100030.94;5075066;28;20533;-78
2021/12/27 02:46:09;;;;;;;46.10;32.08;;;;;;;3.70;100.00;100019.72;5074010;28;20020;-78
2021/12/27 02:48:40;;;;;;;49.63;31.73;;;;;;;3.61;100.00;100002.59;5057175;28;20025;-77
2021/12/27 02:51:07;;;;;;;51.03;33.80;;;;;;;3.61;100.00;99999.13;5056349;28;20020;-77
2021/12/27 02:53:33;;;;;;;44.53;31.70;;;;;;;3.77;100.00;100015.88;5074872;28;20032;-78
2021/12/27 02:56:00;;;;;;;47.58;32.45;;;;;;;3.68;100.00;99989.16;5073627;28;20017;-78
2021/12/27 02:58:26;;;;;;;49.33;32.78;;;;;;;3.76;100.00;100000.16;5056332;28;20024;-78
2021/12/27 03:01:08;;;;;;;46.75;31.63;;;;;;;3.70;100.00;99990.78;5074303;28;20028;-78
2021/12/27 03:03:34;;;;;;;43.40;30.65;;;;;;;3.79;100.00;100003.47;5074422;28;20028;-77
2021/12/27 03:06:00;;;;;;;46.78;32.03;;;;;;;3.81;100.00;100008.69;5073737;28;20023;-77
2021/12/27 03:08:26;;;;;;;47.15;32.35;;;;;;;3.79;100.00;100002.63;5074312;28;20495;-78
2021/12/27 03:10:55;;;;;;;47.53;32.75;;;;;;;3.80;100.00;99999.09;5065011;28;20038;-77
2021/12/27 03:13:29;;;;;;;48.70;32.28;;;;;;;3.83;100.00;99998.94;5073474;28;20028;-77
2021/12/27 03:16:05;;;;;;;46.30;32.00;;;;;;;3.63;100.00;99960.47;5054681;28;20040;-77
2021/12/27 03:18:33;;;;;;;45.78;30.73;;;;;;;3.84;100.00;99990.97;5073036;28;20175;-77
2021/12/27 03:20:58;;;;;;;48.22;31.60;;;;;;;3.84;100.00;99990.13;5055653;28;20036;-78
2021/12/27 03:23:24;;;;;;;44.55;31.48;;;;;;;3.80;100.00;99985.94;5039307;28;20097;-76
2021/12/27 03:25:51;;;;;;;47.55;31.42;;;;;;;3.78;100.00;99975.50;5073637;28;20028;-78
2021/12/27 03:28:20;;;;;;;45.10;31.10;;;;;;;3.88;100.00;99991.66;5073792;28;20467;-77
2021/12/27 03:30:47;;;;;;;46.78;32.00;;;;;;;3.88;100.00;99989.03;5074027;28;20111;-77
2021/12/27 03:33:14;;;;;;;46.03;31.10;;;;;;;3.81;100.00;99983.22;5055118;28;20036;-77
2021/12/27 03:35:48;;;;;;;47.33;32.03;;;;;;;3.91;100.00;99991.50;5073922;28;20024;-77
2021/12/27 03:38:16;;;;;;;48.50;31.70;;;;;;;3.85;100.00;99976.03;5073016;28;20429;-77
2021/12/27 03:40:41;;;;;;;45.17;31.10;;;;;;;3.77;100.00;99962.44;5073202;28;20056;-77
2021/12/27 03:43:07;;;;;;;48.10;31.20;;;;;;;3.86;100.00;99975.97;5093691;28;20040;-79
2021/12/27 03:45:36;;;;;;;47.65;31.95;;;;;;;3.94;100.00;99987.88;5093740;28;20044;-78
2021/12/27 03:48:04;;;;;;;46.70;30.48;;;;;;;3.97;100.00;99982.47;5075851;28;20105;-77
2021/12/27 03:50:29;;;;;;;43.85;29.42;;;;;;;3.94;100.00;99974.72;5093623;28;20798;-77
2021/12/27 03:52:58;;;;;;;46.17;31.52;;;;;;;3.99;100.00;99977.97;5075433;28;20032;-78
2021/12/27 03:55:25;;;;;;;46.23;31.27;;;;;;;3.95;100.00;99966.75;5075162;28;20034;-77
2021/12/27 03:58:07;;;;;;;44.08;30.52;;;;;;;3.93;100.00;99958.09;5093255;28;20278;-77
2021/12/27 04:00:47;;;;;;;45.38;29.60;;;;;;;4.02;100.00;99969.94;5093198;28;20052;-78
2021/12/27 04:03:16;;;;;;;44.17;29.85;;;;;;;3.96;100.00;99951.84;5075331;28;20024;-77
2021/12/27 04:05:42;;;;;;;45.00;30.73;;;;;;;4.03;100.00;99956.72;5093037;28;20066;-77
2021/12/27 04:08:12;;;;;;;46.03;30.65;;;;;;;4.02;100.00;99959.41;5093549;28;20027;-77
2021/12/27 04:10:39;;;;;;;42.92;29.13;;;;;;;3.77;100.00;99904.56;5074697;28;20605;-77
2021/12/27 04:13:09;;;;;;;42.72;30.35;;;;;;;3.89;100.00;99922.38;5092750;28;20024;-78
2021/12/27 04:15:35;;;;;;;44.78;29.52;;;;;;;4.07;100.00;99944.25;5074397;28;20077;-77
2021/12/27 04:18:02;;;;;;;45.97;30.40;;;;;;;4.08;100.00;99952.06;5093400;28;20394;-78
2021/12/27 04:20:28;;;;;;;46.22;30.48;;;;;;;4.09;100.00;99950.28;5093138;28;20436;-78
2021/12/27 04:22:53;;;;;;;46.50;30.63;;;;;;;4.10;100.00;99942.31;5075043;28;20020;-77
2021/12/27 04:25:20;;;;;;;46.38;31.42;;;;;;;4.12;100.00;99949.25;5093080;28;20028;-78
2021/12/27 04:27:48;;;;;;;46.58;30.77;;;;;;;4.07;100.00;99931.09;5092972;28;20028;-77
2021/12/27 04:30:15;;;;;;;45.28;30.73;;;;;;;4.13;100.00;99938.69;5092994;28;20394;-77
2021/12/27 04:32:40;;;;;;;45.10;29.98;;;;;;;4.15;100.00;99931.56;5092806;28;20061;-77
2021/12/27 04:35:07;;;;;;;43.05;29.70;;;;;;;4.13;100.00;99927.31;5074573;28;20119;-77
2021/12/27 04:37:33;;;;;;;44.15;29.45;;;;;;;4.06;100.00;99911.84;5092523;28;20035;-78
2021/12/27 04:39:59;;;;;;;43.75;30.08;;;;;;;4.20;100.00;99933.94;5074397;28;20541;-78
2021/12/27 04:42:26;;;;;;;45.70;31.00;;;;;;;4.08;100.00;99904.69;5092196;28;20663;-77
2021/12/27 04:44:51;;;;;;;44.40;30.42;;;;;;;4.15;100.00;99915.78;5092216;28;20040;-77
2021/12/27 04:47:18;;;;;;;43.20;30.02;;;;;;;4.22;100.00;99927.66;5073977;28;20062;-77
2021/12/27 04:49:43;;;;;;;42.53;30.60;;;;;;;4.22;100.00;99919.78;5092861;28;20096;-77
2021/12/27 04:52:10;;;;;;;41.70;29.85;;;;;;;4.20;100.00;99912.88;5074351;28;20103;-77
2021/12/27 04:54:37;;;;;;;48.38;31.30;;;;;;;4.17;100.00;99906.00;5092670;28;20032;-79
2021/12/27 04:57:03;;;;;;;41.90;29.20;;;;;;;4.28;100.00;99924.72;5073383;28;20036;-77
2021/12/27 04:59:29;;;;;;;45.05;29.70;;;;;;;4.11;100.00;99895.78;5073393;28;20020;-78
2021/12/27 05:01:55;;;;;;;43.72;30.08;;;;;;;4.29;100.00;99925.56;5059317;28;20020;-78
2021/12/27 05:04:23;;;;;;;42.38;29.80;;;;;;;4.30;100.00;99920.22;5041566;28;20143;-77
2021/12/27 05:06:48;;;;;;;40.88;29.27;;;;;;;4.32;100.00;99909.63;5091274;28;20036;-78
2021/12/27 05:09:14;;;;;;;40.65;28.55;;;;;;;4.33;100.00;99919.22;5090046;28;20047;-76
2021/12/27 05:11:42;;;;;;;43.95;30.23;;;;;;;4.19;100.00;99896.25;5090573;28;20110;-79
2021/12/27 05:14:07;;;;;;;42.17;29.30;;;;;;;4.35;100.00;99927.03;5064017;28;20122;-78
2021/12/27 05:16:33;;;;;;;43.92;29.77;;;;;;;4.31;100.00;99918.44;5071294;28;20119;-77
2021/12/27 05:18:59;;;;;;;40.60;29.60;;;;;;;4.35;100.00;99922.59;5084945;28;20028;-78
2021/12/27 05:21:25;;;;;;;40.78;29.25;;;;;;;4.29;100.00;99912.41;5089259;28;20456;-79
2021/12/27 05:23:51;;;;;;;43.28;29.27;;;;;;;4.24;100.00;99896.03;5073536;28;20028;-77
2021/12/27 05:26:16;;;;;;;42.38;29.17;;;;;;;4.39;100.00;99921.53;5067707;28;20565;-78
2021/12/27 05:28:44;;;;;;;43.63;29.50;;;;;;;4.38;100.00;99922.44;5074019;28;20082;-77
2021/12/27 05:31:10;;;;;;;43.80;29.85;;;;;;;4.30;100.00;99900.97;5091925;28;20082;-77
2021/12/27 05:33:36;;;;;;;43.88;29.50;;;;;;;4.41;100.00;99908.28;5091784;28;20024;-77
2021/12/27 05:36:02;;;;;;;44.70;29.48;;;;;;;4.37;100.00;99904.13;5091164;28;20036;-77
2021/12/27 05:38:29;;;;;;;45.00;28.52;;;;;;;4.40;100.00;99907.44;5092139;28;20542;-76
2021/12/27 05:40:55;;;;;;;41.50;28.92;;;;;;;4.40;100.00;99896.91;5072764;28;20097;-79
2021/12/27 05:43:22;;;;;;;40.97;29.63;;;;;;;4.41;100.00;99898.63;5078238;28;20443;-77
2021/12/27 05:45:47;;;;;;;42.25;29.75;;;;;;;4.26;100.00;99875.72;5073106;28;20088;-79
2021/12/27 05:48:13;;;;;;;39.67;28.15;;;;;;;4.33;100.00;99875.31;5090872;28;20114;-78
2021/12/27 05:50:38;;;;;;;40.30;28.45;;;;;;;4.38;100.00;99885.59;5073521;28;20057;-78
2021/12/27 05:53:04;;;;;;;39.40;28.30;;;;;;;4.37;100.00;99885.69;5072337;28;20028;-79
2021/12/27 05:55:30;;;;;;;41.15;29.15;;;;;;;4.30;100.00;99879.91;5072998;28;20119;-77
2021/12/27 05:57:55;;;;;;;40.58;28.10;;;;;;;4.46;100.00;99901.00;5090948;28;20504;-77
2021/12/27 06:00:22;;;;;;;42.17;28.02;;;;;;;4.39;100.00;99889.09;5073010;28;20039;-77
2021/12/27 06:02:47;;;;;;;40.95;29.27;;;;;;;4.33;100.00;99877.97;5091228;28;20081;-77
2021/12/27 06:05:13;;;;;;;41.13;28.55;;;;;;;4.39;100.00;99886.47;5072516;28;20115;-77
2021/12/27 06:07:39;;;;;;;42.60;29.67;;;;;;;4.57;100.00;99901.28;5091366;28;20031;-77
2021/12/27 06:10:06;;;;;;;40.97;29.63;;;;;;;4.44;100.00;99885.28;5090984;28;20016;-77
2021/12/27 06:12:32;;;;;;;44.13;29.08;;;;;;;4.42;100.00;99871.34;5073230;28;20402;-76
2021/12/27 06:14:58;;;;;;;45.83;29.90;;;;;;;4.48;100.00;99878.09;5073214;28;20580;-78
2021/12/27 06:17:23;;;;;;;39.08;28.23;;;;;;;4.59;100.00;99888.88;5073379;28;20058;-78
2021/12/27 06:19:49;;;;;;;42.38;28.50;;;;;;;4.60;100.00;99898.47;5072902;28;20475;-77
2021/12/27 06:22:17;;;;;;;41.22;27.58;;;;;;;4.51;100.00;99891.06;5072885;28;20032;-77
2021/12/27 06:24:43;;;;;;;40.20;27.55;;;;;;;4.64;100.00;99897.38;5073406;28;20024;-77
2021/12/27 06:27:08;;;;;;;40.92;28.98;;;;;;;4.61;100.00;99900.16;5072900;28;20043;-77
2021/12/27 06:29:33;;;;;;;39.17;27.50;;;;;;;4.66;100.00;99895.50;5072574;28;20034;-77
2021/12/27 06:31:59;;;;;;;40.40;28.45;;;;;;;4.69;100.00;99892.72;5072807;28;20035;-76
2021/12/27 06:34:24;;;;;;;38.75;27.40;;;;;;;4.69;100.00;99892.72;5072973;28;20075;-78
2021/12/27 06:36:50;;;;;;;41.50;29.48;;;;;;;4.72;100.00;99886.44;5055853;28;20522;-77
2021/12/27 06:39:16;;;;;;;39.95;27.80;;;;;;;4.64;100.00;99884.19;5066693;28;20133;-78
2021/12/27 06:41:41;;;;;;;41.35;28.02;;;;;;;4.72;100.00;99889.91;5052338;28;20040;-78
2021/12/27 06:44:07;;;;;;;43.63;28.75;;;;;;;4.70;100.00;99880.38;5052572;28;20391;-77
2021/12/27 06:46:32;;;;;;;42.42;29.30;;;;;;;4.65;100.00;99872.75;5052176;28;20032;-78
2021/12/27 06:49:00;;;;;;;41.70;29.63;;;;;;;4.66;100.00;99868.34;5052747;28;20032;-78
2021/12/27 06:51:25;;;;;;;41.50;28.50;;;;;;;4.68;100.00;99864.69;5052637;28;20116;-78
2021/12/27 06:53:51;;;;;;;42.72;27.98;;;;;;;4.62;100.00;99851.84;5035696;28;20145;-78
2021/12/27 06:56:16;;;;;;;43.33;28.17;;;;;;;4.78;100.00;99875.56;5035453;28;20061;-78
2021/12/27 06:58:42;;;;;;;45.47;28.73;;;;;;;4.68;100.00;99846.25;5070714;28;20040;-77
2021/12/27 07:01:09;;;;;;;42.05;28.23;;;;;;;4.73;100.00;99859.16;5051903;28;20029;-77
2021/12/27 07:03:35;;;;;;;41.88;27.75;;;;;;;4.73;100.00;99853.88;5053389;28;20037;-78
2021/12/27 07:06:01;;;;;;;46.28;27.33;;;;;;;4.70;100.00;99847.00;5070465;28;20495;-77
2021/12/27 07:08:27;;;;;;;43.70;28.48;;;;;;;4.64;100.00;99833.31;5055893;28;20043;-79
2021/12/27 07:10:53;;;;;;;46.05;28.25;;;;;;;4.84;100.00;99858.56;5056384;28;20020;-78
2021/12/27 07:13:18;;;;;;;47.45;29.27;;;;;;;4.72;100.00;99839.03;5074070;28;20035;-77
2021/12/27 07:15:45;;;;;;;42.95;28.30;;;;;;;4.85;100.00;99858.47;5055842;28;20068;-77
2021/12/27 07:18:23;;;;;;;45.60;28.00;;;;;;;4.82;100.00;99861.28;5073976;28;20079;-77
2021/12/27 07:20:50;;;;;;;46.13;27.60;;;;;;;4.84;100.00;99855.94;5073747;28;20428;-78
2021/12/27 07:23:15;;;;;;;44.53;27.70;;;;;;;4.86;100.00;99851.44;5074146;28;20112;-77
2021/12/27 07:25:40;;;;;;;41.88;26.65;;;;;;;4.73;100.00;99824.91;5055981;28;20450;-78
2021/12/27 07:28:06;;;;;;;42.22;26.55;;;;;;;4.85;100.00;99849.72;5037405;28;20426;-78
2021/12/27 07:30:31;;;;;;;43.28;27.23;;;;;;;4.84;100.00;99850.66;5055590;28;20360;-76
2021/12/27 07:32:57;;;;;;;41.13;26.35;;;;;;;4.78;100.00;99847.44;5055420;28;20557;-78
2021/12/27 07:35:25;;;;;;;43.78;26.65;;;;;;;4.87;100.00;99856.59;5055537;28;20025;-75
2021/12/27 07:37:50;;;;;;;42.88;26.83;;;;;;;4.85;100.00;99841.81;5073505;28;20108;-77
2021/12/27 07:40:16;;;;;;;42.88;26.23;;;;;;;4.88;100.00;99852.19;5073106;28;20143;-77
2021/12/27 07:42:41;;;;;;;37.55;25.25;;;;;;;4.80;100.00;99841.25;5055047;28;20064;-77
2021/12/27 07:45:07;;;;;;;37.95;25.58;;;;;;;4.77;100.00;99837.84;5073757;28;20108;-77
2021/12/27 07:47:33;;;;;;;39.50;26.67;;;;;;;4.82;100.00;99842.00;5073125;28;20386;-77
2021/12/27 07:49:58;;;;;;;43.08;27.48;;;;;;;4.91;100.00;99857.28;5054644;28;20040;-78
2021/12/27 07:52:24;;;;;;;40.30;26.63;;;;;;;4.79;100.00;99837.75;5055384;28;20436;-78
2021/12/27 07:54:51;;;;;;;37.42;25.05;;;;;;;4.92;100.00;99859.84;5072973;28;20032;-77
2021/12/27 07:57:17;;;;;;;43.03;27.30;;;;;;;4.91;100.00;99859.91;5073572;28;20488;-77
2021/12/27 07:59:47;;;;;;;39.72;26.58;;;;;;;4.86;100.00;99844.38;5055303;28;20039;-78
2021/12/27 08:02:14;;;;;;;39.53;26.98;;;;;;;4.77;100.00;99832.56;5069650;28;20124;-77
2021/12/27 08:04:42;;;;;;;38.92;25.20;;;;;;;4.78;100.00;99838.69;5055251;28;20503;-78
2021/12/27 08:07:07;;;;;;;37.92;25.38;;;;;;;4.91;100.00;99857.28;5053596;28;20025;-78
2021/12/27 08:09:36;;;;;;;36.03;25.65;;;;;;;4.79;100.00;99845.63;5035066;28;20056;-78
2021/12/27 08:12:02;;;;;;;38.28;25.65;;;;;;;4.86;100.00;99867.25;5054037;28;20032;-78
2021/12/27 08:14:28;;;;;;;37.22;26.10;;;;;;;4.87;100.00;99867.16;5073023;28;20395;-78
2021/12/27 08:16:55;;;;;;;35.70;25.05;;;;;;;4.77;100.00;99863.34;5038011;28;20055;-77
2021/12/27 08:19:23;;;;;;;34.40;22.98;;;;;;;4.81;100.00;99862.22;5054852;28;20572;-78
2021/12/27 08:21:49;;;;;;;33.47;24.50;;;;;;;4.84;100.00;99855.94;5072450;28;20033;-79
2021/12/27 08:24:14;;;;;;;36.53;25.70;;;;;;;4.76;100.00;99848.44;5054776;28;20395;-79
2021/12/27 08:26:40;;;;;;;38.13;24.65;;;;;;;4.92;100.00;99870.38;5072330;28;20037;-78
2021/12/27 08:29:09;;;;;;;36.97;23.92;;;;;;;4.93;100.00;99871.22;5060185;28;20036;-78
2021/12/27 08:31:34;;;;;;;35.90;23.42;;;;;;;4.97;100.00;99865.72;5072015;28;20155;-79
2021/12/27 08:34:00;;;;;;;33.22;23.00;;;;;;;4.96;100.00;99856.09;5054779;28;20494;-78
2021/12/27 08:36:25;;;;;;;32.22;22.63;;;;;;;4.94;100.00;99852.72;5054005;28;20107;-78
2021/12/27 08:38:51;;;;;;;37.53;25.10;;;;;;;4.88;100.00;99842.53;5054641;28;20124;-79
2021/12/27 08:41:18;;;;;;;32.33;23.65;;;;;;;5.00;100.00;99848.88;5092405;28;20039;-78
2021/12/27 08:43:46;;;;;;;31.67;23.50;;;;;;;4.91;100.00;99830.94;5092698;28;20532;-79
2021/12/27 08:46:12;;;;;;;30.80;23.15;;;;;;;4.95;100.00;99835.13;5092525;28;20087;-78
2021/12/27 08:48:43;;;;;;;30.77;22.27;;;;;;;4.90;100.00;99819.56;5070926;28;20500;-80
2021/12/27 08:51:08;;;;;;;30.85;22.65;;;;;;;5.05;100.00;99832.81;5082663;28;20039;-79
2021/12/27 08:53:34;;;;;;;29.52;21.80;;;;;;;5.01;100.00;99806.63;5054432;28;20120;-79
2021/12/27 08:55:59;;;;;;;29.38;22.27;;;;;;;5.04;100.00;99802.13;5070693;28;20113;-78
2021/12/27 08:58:24;;;;;;;32.80;23.58;;;;;;;5.13;100.00;99817.41;5057609;28;20455;-79
2021/12/27 09:00:50;;;;;;;28.92;21.83;;;;;;;5.11;100.00;99809.56;5090519;28;20047;-78
2021/12/27 09:03:15;;;;;;;33.05;21.08;;;;;;;5.00;100.00;99793.56;5074055;28;20105;-78
2021/12/27 09:05:42;;;;;;;29.40;20.35;;;;;;;5.16;100.00;99819.88;5090868;28;20032;-80
2021/12/27 09:08:08;;;;;;;26.70;21.00;;;;;;;4.86;100.00;99782.94;5092091;28;20031;-79
2021/12/27 09:10:33;;;;;;;26.67;20.45;;;;;;;5.10;99.88;99828.97;5090940;28;20512;-80
2021/12/27 09:13:00;;;;;;;26.67;20.33;;;;;;;4.83;100.00;99778.69;5090289;28;20118;-79
2021/12/27 09:15:26;;;;;;;25.90;20.77;;;;;;;5.11;100.00;99832.44;5092158;28;20028;-78
2021/12/27 09:17:52;;;;;;;28.80;20.73;;;;;;;5.08;100.00;99832.63;5092054;28;20085;-80
2021/12/27 09:20:18;;;;;;;30.35;20.20;;;;;;;5.06;99.58;99835.38;5091728;28;20466;-79
2021/12/27 09:22:44;;;;;;;27.98;19.98;;;;;;;5.06;99.91;99829.22;5091356;28;20032;-79
2021/12/27 09:25:09;;;;;;;25.73;20.17;;;;;;;5.09;99.96;99829.91;5090214;28;20363;-78
2021/12/27 09:27:38;;;;;;;25.17;19.77;;;;;;;5.12;100.00;99831.53;5090571;28;20036;-80
2021/12/27 09:30:05;;;;;;;28.13;20.30;;;;;;;5.18;99.30;99829.38;5090207;28;20463;-81
2021/12/27 09:32:31;;;;;;;23.83;18.15;;;;;;;5.18;99.08;99816.22;5088649;28;20024;-79
2021/12/27 09:34:56;;;;;;;23.67;19.58;;;;;;;5.12;99.37;99799.91;5091296;28;20024;-81
2021/12/27 09:37:22;;;;;;;24.35;18.85;;;;;;;5.27;98.76;99819.25;5086506;28;20032;-80
2021/12/27 09:39:55;;;;;;;29.33;19.67;;;;;;;4.88;98.46;99749.44;5066409;28;20052;-80
2021/12/27 09:42:26;;;;;;;21.95;18.33;;;;;;;5.24;98.83;99809.75;5090757;28;20047;-80
2021/12/27 09:44:53;;;;;;;23.60;18.35;;;;;;;5.16;98.50;99794.34;5086994;28;20012;-80
2021/12/27 09:47:19;;;;;;;25.00;18.65;;;;;;;5.27;99.01;99809.56;5089186;28;20040;-82
2021/12/27 09:49:48;;;;;;;23.95;18.25;;;;;;;5.04;98.31;99766.09;5089050;28;20509;-79
2021/12/27 09:52:16;;;;;;;21.73;17.47;;;;;;;5.41;98.58;99814.88;5090653;28;20016;-82
2021/12/27 09:54:47;;;;;;;22.35;17.10;;;;;;;5.11;98.34;99751.59;5090147;28;20036;-83
2021/12/27 09:57:14;;;;;;;22.55;18.08;;;;;;;5.30;97.76;99767.22;5088330;28;20399;-81
2021/12/27 09:59:39;;;;;;;22.20;16.52;;;;;;;5.56;97.45;99807.88;5089365;28;20039;-82
2021/12/27 10:02:06;;;;;;;18.70;16.25;;;;;;;5.61;97.62;99807.56;5090013;28;20387;-82
2021/12/27 10:04:32;;;;;;;21.42;16.15;;;;;;;5.61;97.42;99792.59;5091217;28;20063;-79
2021/12/27 10:07:00;;;;;;;19.00;15.85;;;;;;;5.75;96.26;99783.84;5090098;28;20028;-82
2021/12/27 10:09:25;;;;;;;20.15;16.70;;;;;;;5.50;96.49;99721.19;5090781;28;20058;-81
2021/12/27 10:11:51;;;;;;;23.67;15.75;;;;;;;5.64;96.09;99736.16;5088846;28;20093;-82
2021/12/27 10:14:21;;;;;;;26.17;17.33;;;;;;;5.62;95.45;99736.28;5090703;28;20024;-83
2021/12/27 10:17:03;;;;;;;19.30;15.43;;;;;;;5.68;95.84;99742.97;5099829;28;20032;-80
2021/12/27 10:19:28;;;;;;;21.30;15.30;;;;;;;5.84;95.54;99769.25;5090321;28;20032;-79
2021/12/27 10:21:54;;;;;;;18.17;15.73;;;;;;;5.83;94.89;99760.50;5089259;28;20650;-81
2021/12/27 10:24:27;;;;;;;18.58;15.77;;;;;;;6.02;95.04;99777.88;5090364;28;20390;-80
2021/12/27 10:26:53;;;;;;;21.60;14.23;;;;;;;5.95;94.68;99747.53;5087810;28;20089;-81
2021/12/27 10:29:25;;;;;;;17.05;14.30;;;;;;;6.09;94.32;99777.41;5090543;28;20036;-80
2021/12/27 10:31:55;;;;;;;18.70;14.43;;;;;;;6.11;94.77;99766.75;5090569;28;20081;-79
2021/12/27 10:34:43;;;;;;;18.05;15.90;;;;;;;6.26;94.03;99780.78;5090651;28;20554;-79
2021/12/27 10:37:14;;;;;;;18.65;14.75;;;;;;;6.27;94.07;99777.22;5090159;28;20360;-77
2021/12/27 10:40:06;;;;;;;15.93;14.23;;;;;;;6.30;94.12;99774.38;5090371;28;20064;-82
2021/12/27 10:42:35;;;;;;;17.40;14.00;;;;;;;6.37;94.13;99771.25;5092501;28;20039;-81
2021/12/27 10:45:05;;;;;;;15.40;13.57;;;;;;;6.48;93.31;99759.16;5094760;28;20340;-81
2021/12/27 10:47:33;;;;;;;18.02;14.35;;;;;;;6.61;93.15;99770.63;5092499;28;20274;-82
2021/12/27 10:50:10;;;;;;;18.90;12.95;;;;;;;6.58;92.82;99747.91;5094391;28;20454;-80
2021/12/27 10:52:44;;;;;;;15.05;12.35;;;;;;;6.97;92.64;99763.91;5094307;28;20035;-81
2021/12/27 10:55:10;;;;;;;14.20;12.65;;;;;;;7.01;91.51;99760.97;5094262;28;20550;-78
2021/12/27 10:57:36;;;;;;;14.00;12.45;;;;;;;6.95;91.33;99764.00;5092710;28;20057;-80
2021/12/27 11:00:23;;;;;;;16.80;12.68;;;;;;;6.93;92.50;99767.72;5093639;28;20390;-79
2021/12/27 11:02:49;;;;;;;14.77;11.45;;;;;;;6.82;91.60;99758.69;5092591;28;20154;-81
2021/12/27 11:05:17;;;;;;;14.82;12.77;;;;;;;6.83;92.20;99759.53;5091947;28;20534;-80
2021/12/27 11:07:43;;;;;;;16.75;12.82;;;;;;;6.81;92.51;99767.56;5086034;28;20121;-80
2021/12/27 11:10:09;;;;;;;14.65;12.48;;;;;;;6.81;92.83;99769.34;5084673;28;20024;-81
2021/12/27 11:12:35;;;;;;;14.02;12.52;;;;;;;6.81;92.85;99764.06;5092648;28;20035;-80
2021/12/27 11:15:03;;;;;;;15.68;13.43;;;;;;;6.74;93.36;99749.56;5092895;28;20028;-80
2021/12/27 11:17:29;;;;;;;14.48;12.90;;;;;;;6.78;93.35;99751.91;5092626;28;20127;-81
2021/12/27 11:19:54;;;;;;;15.18;12.57;;;;;;;6.80;93.13;99743.88;5093623;28;20491;-82
2021/12/27 11:22:20;;;;;;;14.77;13.15;;;;;;;6.82;93.46;99749.91;5091863;28;20062;-80